Duncans Bridge, Missouri
Current Conditions -  °F | °C
As of 2:55 AM on Sunday 21 Dec 2014 (Local Time) from KIRK Reporting Station
Overcast Overcast  
Wind Chill: -1°   Ceiling: 1900
Heat Index:   Visibility: 7mi
Dew Point:   Wind: 10mph
Humidity: 93%   Direction: 170°S
Pressure: 30.14"   Gusts: NA
Location:  39.735°N, 92.239°W
Report Text: KIRK 210855Z AUTO 17009KT 7SM OVC019 03/02 A3014 RMK AO2 SLP216 T00330022 56007
Loading
Personal Weather Stations






























Interactive Weather Map New forecast layout! Learn more

10-Day Weather Forecast

Advertisements
Track Severe Weather on mobile